createdAt,value
2023-05-06T00:00:08.984Z,0.98
2023-05-06T00:02:36.096Z,2.53
2023-05-06T00:05:03.309Z,0.60
2023-05-06T00:07:30.459Z,0.70
2023-05-06T00:09:57.478Z,0.40
2023-05-06T00:12:24.507Z,0.77
2023-05-06T00:14:51.565Z,2.47
2023-05-06T00:17:18.740Z,0.50
2023-05-06T00:19:45.817Z,0.40
2023-05-06T00:22:12.900Z,2.45
2023-05-06T00:24:39.991Z,3.92
2023-05-06T00:27:07.021Z,0.77
2023-05-06T00:29:34.041Z,0.65
2023-05-06T00:32:01.391Z,0.65
2023-05-06T00:34:28.480Z,0.60
2023-05-06T00:36:55.673Z,1.33
2023-05-06T00:39:22.775Z,0.50
2023-05-06T00:41:50.014Z,1.25
2023-05-06T00:44:17.025Z,0.50
2023-05-06T00:46:44.372Z,0.50
2023-05-06T00:49:13.154Z,1.38
2023-05-06T00:51:40.269Z,0.70
2023-05-06T00:54:07.291Z,0.50
2023-05-06T00:56:34.377Z,0.70
2023-05-06T00:59:01.676Z,0.70
2023-05-06T01:01:31.149Z,0.47
2023-05-06T01:03:58.729Z,4.40
2023-05-06T01:06:38.047Z,0.60
2023-05-06T01:09:05.949Z,1.05
2023-05-06T01:11:44.831Z,0.93
2023-05-06T01:14:20.801Z,0.60
2023-05-06T01:16:49.132Z,2.33
2023-05-06T01:19:24.845Z,1.35
2023-05-06T01:21:53.016Z,0.50
2023-05-06T01:24:20.043Z,0.90
2023-05-06T01:26:47.073Z,0.50
2023-05-06T01:29:14.243Z,0.73
2023-05-06T01:31:46.237Z,1.95
2023-05-06T01:34:19.020Z,2.47
2023-05-06T01:36:57.999Z,1.73
2023-05-06T01:39:30.645Z,0.40
2023-05-06T01:41:59.183Z,0.60
2023-05-06T01:44:27.711Z,1.85
2023-05-06T01:46:55.160Z,0.50
2023-05-06T01:49:22.965Z,2.28
2023-05-06T01:51:50.750Z,0.57
2023-05-06T01:54:17.966Z,1.05
2023-05-06T01:56:45.027Z,0.50
2023-05-06T01:59:12.059Z,0.73
2023-05-06T02:01:39.121Z,0.50
2023-05-06T02:04:06.258Z,1.65
2023-05-06T02:06:33.347Z,1.50
2023-05-06T02:09:00.402Z,0.70
2023-05-06T02:11:27.452Z,1.05
2023-05-06T02:13:55.055Z,2.10
2023-05-06T02:16:22.157Z,1.48
2023-05-06T02:18:49.339Z,1.55
2023-05-06T02:21:16.376Z,1.75
2023-05-06T02:23:43.408Z,0.60
2023-05-06T02:26:10.615Z,2.38
2023-05-06T02:28:37.719Z,0.70
2023-05-06T02:31:04.745Z,1.30
2023-05-06T02:33:31.816Z,0.63
2023-05-06T02:35:58.834Z,1.27
2023-05-06T02:38:26.679Z,0.60
2023-05-06T02:40:53.694Z,1.30
2023-05-06T02:43:20.860Z,1.05
2023-05-06T02:45:47.954Z,0.70
2023-05-06T02:48:15.008Z,2.15
2023-05-06T02:50:42.120Z,0.40
2023-05-06T02:53:10.383Z,0.40
2023-05-06T02:55:37.440Z,2.65
2023-05-06T02:58:04.437Z,0.63
2023-05-06T03:00:31.465Z,1.70
2023-05-06T03:02:58.532Z,1.30
2023-05-06T03:05:25.596Z,0.50
2023-05-06T03:07:52.698Z,0.85
2023-05-06T03:10:19.841Z,0.60
2023-05-06T03:12:46.903Z,0.60
2023-05-06T03:15:13.978Z,1.17
2023-05-06T03:17:41.030Z,1.25
2023-05-06T03:20:09.019Z,0.52
2023-05-06T03:22:36.274Z,0.82
2023-05-06T03:25:03.310Z,1.35
2023-05-06T03:27:30.438Z,1.30
2023-05-06T03:29:57.445Z,0.70
2023-05-06T03:32:24.607Z,1.10
2023-05-06T03:34:51.696Z,0.60
2023-05-06T03:37:18.910Z,0.65
2023-05-06T03:39:46.060Z,1.00
2023-05-06T03:42:13.100Z,0.73
2023-05-06T03:44:40.157Z,2.20
2023-05-06T03:47:07.175Z,0.75
2023-05-06T03:49:34.162Z,0.82
2023-05-06T03:52:01.377Z,1.50
2023-05-06T03:54:28.417Z,0.77
2023-05-06T03:56:55.477Z,0.85
2023-05-06T03:59:22.500Z,0.88
2023-05-06T04:01:49.534Z,0.73
2023-05-06T04:04:17.063Z,0.70
2023-05-06T04:06:45.288Z,0.68
2023-05-06T04:09:12.365Z,1.42
2023-05-06T04:11:39.466Z,1.38
2023-05-06T04:14:06.500Z,2.88
2023-05-06T04:16:33.630Z,0.60
2023-05-06T04:19:01.452Z,0.52
2023-05-06T04:21:29.537Z,0.60
2023-05-06T04:23:56.678Z,0.57
2023-05-06T04:26:23.709Z,1.92
2023-05-06T04:28:51.316Z,1.30
2023-05-06T04:31:18.720Z,0.73
2023-05-06T04:33:45.787Z,2.45
2023-05-06T04:36:12.963Z,1.08
2023-05-06T04:38:40.024Z,0.60
2023-05-06T04:41:07.202Z,0.70
2023-05-06T04:43:34.341Z,0.50
2023-05-06T04:46:01.592Z,0.60
2023-05-06T04:48:28.641Z,0.60
2023-05-06T04:50:55.668Z,0.88
2023-05-06T04:53:22.675Z,0.60
2023-05-06T04:55:49.807Z,0.68
2023-05-06T04:58:16.972Z,3.28
2023-05-06T05:00:43.979Z,0.40
2023-05-06T05:03:11.328Z,0.60
2023-05-06T05:05:38.402Z,0.70
2023-05-06T05:08:05.530Z,2.30
2023-05-06T05:10:32.577Z,0.63
2023-05-06T05:12:59.630Z,0.65
2023-05-06T05:15:26.697Z,0.88
2023-05-06T05:17:53.882Z,0.50
2023-05-06T05:20:21.137Z,0.43
2023-05-06T05:22:48.157Z,0.95
2023-05-06T05:25:15.262Z,0.70
2023-05-06T05:27:42.998Z,1.08
2023-05-06T05:30:10.355Z,0.50
2023-05-06T05:32:37.610Z,0.57
2023-05-06T05:35:05.017Z,1.10
2023-05-06T05:37:32.604Z,1.00
2023-05-06T05:39:59.718Z,0.60
2023-05-06T05:42:27.734Z,2.55
2023-05-06T05:44:54.840Z,2.83
2023-05-06T05:47:21.907Z,0.82
2023-05-06T05:49:48.931Z,0.60
2023-05-06T05:52:15.992Z,0.40
2023-05-06T05:54:43.043Z,0.93
2023-05-06T05:57:10.464Z,0.45
2023-05-06T05:59:37.673Z,0.82
2023-05-06T06:02:05.082Z,0.30
2023-05-06T06:04:32.278Z,0.60
2023-05-06T06:07:01.711Z,1.35
2023-05-06T06:09:28.826Z,0.50
2023-05-06T06:11:55.992Z,1.15
2023-05-06T06:14:23.046Z,0.47
2023-05-06T06:16:50.157Z,0.52
2023-05-06T06:19:17.863Z,0.45
2023-05-06T06:21:44.974Z,1.13
2023-05-06T06:24:13.263Z,0.70
2023-05-06T06:26:40.400Z,0.60
2023-05-06T06:29:07.586Z,1.55
2023-05-06T06:31:35.251Z,0.95
2023-05-06T06:34:06.301Z,1.23
2023-05-06T06:36:33.528Z,1.95
2023-05-06T06:39:00.668Z,1.30
2023-05-06T06:41:28.183Z,1.48
2023-05-06T06:43:55.773Z,0.95
2023-05-06T06:46:22.928Z,1.08
2023-05-06T06:48:50.084Z,1.63
2023-05-06T06:51:17.094Z,1.25
2023-05-06T06:53:44.226Z,1.45
2023-05-06T06:56:15.790Z,0.55
2023-05-06T06:58:42.998Z,2.60
2023-05-06T07:01:10.819Z,2.30
2023-05-06T07:03:38.000Z,1.30
2023-05-06T07:06:05.090Z,1.73
2023-05-06T07:08:32.134Z,0.75
2023-05-06T07:10:59.172Z,1.60
2023-05-06T07:13:26.298Z,0.60
2023-05-06T07:15:53.379Z,1.15
2023-05-06T07:18:20.590Z,2.80
2023-05-06T07:20:47.304Z,1.52
2023-05-06T07:23:14.334Z,1.02
2023-05-06T07:25:41.431Z,1.17
2023-05-06T07:28:08.560Z,0.70
2023-05-06T07:30:38.372Z,1.33
2023-05-06T07:33:05.628Z,0.35
2023-05-06T07:35:32.783Z,0.60
2023-05-06T07:37:59.918Z,0.70
2023-05-06T07:40:26.972Z,0.75
2023-05-06T07:42:54.572Z,6.95
2023-05-06T07:45:23.481Z,2.75
2023-05-06T07:47:50.692Z,3.45
2023-05-06T07:50:17.888Z,0.88
2023-05-06T07:52:44.914Z,3.50
2023-05-06T07:55:12.269Z,1.75
2023-05-06T07:57:39.463Z,0.85
2023-05-06T08:00:06.862Z,1.00
2023-05-06T08:02:34.064Z,0.70
2023-05-06T08:05:01.320Z,0.47
2023-05-06T08:07:28.484Z,1.00
2023-05-06T08:09:56.459Z,1.23
2023-05-06T08:12:23.494Z,0.70
2023-05-06T08:14:50.637Z,0.65
2023-05-06T08:17:17.697Z,0.88
2023-05-06T08:19:44.802Z,0.52
2023-05-06T08:22:11.867Z,1.60
2023-05-06T08:24:38.925Z,2.58
2023-05-06T08:27:05.971Z,2.88
2023-05-06T08:29:33.053Z,1.13
2023-05-06T08:32:00.364Z,0.65
2023-05-06T08:34:27.500Z,0.70
2023-05-06T08:36:54.525Z,0.75
2023-05-06T08:39:21.577Z,0.65
2023-05-06T08:41:49.127Z,0.45
2023-05-06T08:44:18.669Z,1.58
2023-05-06T08:46:46.295Z,3.30
2023-05-06T08:49:13.428Z,1.35
2023-05-06T08:51:43.566Z,4.35
2023-05-06T08:54:12.651Z,1.40
2023-05-06T08:56:42.071Z,0.85
2023-05-06T08:59:09.617Z,0.47
2023-05-06T09:01:36.852Z,1.17
2023-05-06T09:04:04.454Z,1.45
2023-05-06T09:06:31.489Z,1.13
2023-05-06T09:08:58.627Z,0.70
2023-05-06T09:11:27.870Z,1.00
2023-05-06T09:14:11.894Z,0.70
2023-05-06T09:16:40.114Z,0.60
2023-05-06T09:19:07.306Z,0.45
2023-05-06T09:21:35.907Z,0.50
2023-05-06T09:24:03.861Z,1.95
2023-05-06T09:26:31.832Z,1.23
2023-05-06T09:28:59.798Z,0.30
2023-05-06T09:31:27.573Z,0.70
2023-05-06T09:33:55.784Z,1.23
2023-05-06T09:36:23.654Z,0.60
2023-05-06T09:38:51.088Z,1.77
2023-05-06T09:41:20.841Z,0.82
2023-05-06T09:43:49.194Z,0.52
2023-05-06T09:46:19.719Z,0.85
2023-05-06T09:48:47.286Z,0.40
2023-05-06T09:51:14.356Z,0.75
2023-05-06T09:53:41.537Z,0.38
2023-05-06T09:56:09.199Z,0.77
2023-05-06T09:58:37.172Z,0.60
2023-05-06T10:01:05.707Z,0.63
2023-05-06T10:03:33.399Z,0.93
2023-05-06T10:06:03.269Z,0.85
2023-05-06T10:08:30.527Z,0.70
2023-05-06T10:10:57.591Z,1.77
2023-05-06T10:13:24.885Z,1.13
2023-05-06T10:15:52.964Z,0.85
2023-05-06T10:18:21.135Z,0.77
2023-05-06T10:20:48.701Z,1.33
2023-05-06T10:23:26.797Z,0.60
2023-05-06T10:25:57.942Z,1.08
2023-05-06T10:28:30.412Z,1.08
2023-05-06T10:30:58.878Z,0.60
2023-05-06T10:33:26.864Z,0.60
2023-05-06T10:36:09.942Z,0.85
2023-05-06T10:38:39.856Z,1.25
2023-05-06T10:41:08.046Z,0.60
2023-05-06T10:43:39.436Z,0.60
2023-05-06T10:46:10.727Z,0.40
2023-05-06T10:48:38.658Z,0.50
2023-05-06T10:51:14.636Z,0.50
2023-05-06T10:53:54.281Z,0.68
2023-05-06T10:56:21.684Z,1.08
2023-05-06T10:58:49.118Z,0.30
2023-05-06T11:01:16.487Z,0.35
2023-05-06T11:03:46.461Z,1.17
2023-05-06T11:06:13.665Z,0.52
2023-05-06T11:08:40.709Z,0.30
2023-05-06T11:11:26.381Z,0.65
2023-05-06T11:13:53.595Z,0.60
2023-05-06T11:16:39.291Z,0.65
2023-05-06T11:19:06.464Z,0.63
2023-05-06T11:21:33.732Z,1.70
2023-05-06T11:24:00.777Z,0.55
2023-05-06T11:26:28.513Z,0.60
2023-05-06T11:28:55.881Z,1.55
2023-05-06T11:31:23.183Z,0.40
2023-05-06T11:33:52.624Z,0.60
2023-05-06T11:36:20.670Z,2.28
2023-05-06T11:38:49.514Z,0.60
2023-05-06T11:41:17.199Z,2.17
2023-05-06T11:43:49.815Z,1.20
2023-05-06T11:46:17.052Z,0.70
2023-05-06T11:48:44.228Z,0.50
2023-05-06T11:51:11.241Z,1.08
2023-05-06T11:53:38.544Z,0.50
2023-05-06T11:56:08.474Z,0.85
2023-05-06T11:58:35.571Z,0.52
2023-05-06T12:01:04.088Z,0.60
2023-05-06T12:03:32.364Z,0.50
2023-05-06T12:05:59.769Z,0.70
2023-05-06T12:08:30.984Z,0.52
2023-05-06T12:11:24.022Z,0.65
2023-05-06T12:13:51.166Z,0.40
2023-05-06T12:16:18.282Z,0.75
2023-05-06T12:18:45.465Z,1.30
2023-05-06T12:21:12.911Z,0.65
2023-05-06T12:23:51.103Z,3.80
2023-05-06T12:26:19.487Z,0.40
2023-05-06T12:28:46.635Z,0.88
2023-05-06T12:31:21.004Z,0.75
2023-05-06T12:33:51.762Z,1.02
2023-05-06T12:36:19.475Z,0.40
2023-05-06T12:38:52.661Z,2.63
2023-05-06T12:41:23.044Z,0.50
2023-05-06T12:43:50.274Z,1.17
2023-05-06T12:46:17.777Z,0.43
2023-05-06T12:48:56.660Z,4.40
2023-05-06T12:51:23.729Z,2.17
2023-05-06T12:53:51.053Z,5.68
2023-05-06T12:56:18.079Z,3.38
2023-05-06T12:58:45.229Z,4.20
2023-05-06T13:01:12.512Z,3.17
2023-05-06T13:03:40.942Z,3.90
2023-05-06T13:06:08.177Z,3.55
2023-05-06T13:08:35.981Z,2.75
2023-05-06T13:11:03.064Z,6.07
2023-05-06T13:13:30.568Z,2.42
2023-05-06T13:15:57.611Z,2.88
2023-05-06T13:18:24.739Z,4.43
2023-05-06T13:20:52.003Z,6.03
2023-05-06T13:23:19.466Z,4.03
2023-05-06T13:26:02.834Z,2.47
2023-05-06T13:28:32.242Z,2.95
2023-05-06T13:30:59.358Z,6.03
2023-05-06T13:33:26.466Z,2.70
2023-05-06T13:35:53.651Z,3.08
2023-05-06T13:38:21.102Z,1.77
2023-05-06T13:40:51.557Z,2.10
2023-05-06T13:43:19.168Z,3.17
2023-05-06T13:45:48.836Z,3.70
2023-05-06T13:48:15.990Z,3.55
2023-05-06T13:50:43.485Z,3.65
2023-05-06T13:53:11.540Z,3.17
2023-05-06T13:55:38.964Z,2.10
2023-05-06T13:58:06.908Z,3.55
2023-05-06T14:00:34.654Z,3.35
2023-05-06T14:03:02.270Z,3.15
2023-05-06T14:05:29.438Z,2.85
2023-05-06T14:07:56.542Z,4.05
2023-05-06T14:10:23.610Z,4.68
2023-05-06T14:12:51.312Z,2.30
2023-05-06T14:15:18.437Z,2.28
2023-05-06T14:17:45.716Z,4.65
2023-05-06T14:20:12.837Z,2.28
2023-05-06T14:22:42.848Z,2.80
2023-05-06T14:25:10.780Z,4.15
2023-05-06T14:27:38.114Z,2.03
2023-05-06T14:30:08.555Z,1.77
2023-05-06T14:32:36.386Z,3.10
2023-05-06T14:35:03.523Z,2.55
2023-05-06T14:37:30.542Z,5.43
2023-05-06T14:39:58.001Z,3.95
2023-05-06T14:42:25.051Z,3.15
2023-05-06T14:44:52.081Z,1.75
2023-05-06T14:47:19.195Z,2.45
2023-05-06T14:49:46.194Z,4.97
2023-05-06T14:52:13.221Z,1.95
2023-05-06T14:54:42.272Z,3.45
2023-05-06T14:57:09.954Z,2.33
2023-05-06T14:59:37.345Z,2.85
2023-05-06T15:02:04.913Z,1.73
2023-05-06T15:04:32.017Z,3.00
2023-05-06T15:06:59.217Z,3.40
2023-05-06T15:09:26.721Z,2.42
2023-05-06T15:11:53.830Z,2.15
2023-05-06T15:14:21.019Z,2.60
2023-05-06T15:16:48.204Z,5.78
2023-05-06T15:19:15.456Z,3.03
2023-05-06T15:21:42.513Z,1.98
2023-05-06T15:24:09.647Z,1.73
2023-05-06T15:26:36.881Z,2.67
2023-05-06T15:29:05.170Z,1.58
2023-05-06T15:31:33.540Z,1.98
2023-05-06T15:34:00.922Z,2.70
2023-05-06T15:36:28.101Z,1.40
2023-05-06T15:39:00.494Z,2.58
2023-05-06T15:41:29.388Z,2.30
2023-05-06T15:44:00.439Z,3.78
2023-05-06T15:46:28.145Z,2.65
2023-05-06T15:49:17.410Z,5.13
2023-05-06T15:51:42.520Z,3.95
2023-05-06T15:54:09.558Z,2.65
2023-05-06T15:56:40.665Z,4.60
2023-05-06T15:59:08.706Z,4.15
2023-05-06T16:02:18.981Z,2.42
2023-05-06T16:04:23.333Z,3.00
2023-05-06T16:06:50.588Z,1.55
2023-05-06T16:09:17.887Z,3.28
2023-05-06T16:11:44.947Z,2.42
2023-05-06T16:14:12.040Z,4.10
2023-05-06T16:16:39.264Z,5.20
2023-05-06T16:19:06.515Z,1.85
2023-05-06T16:21:34.363Z,1.95
2023-05-06T16:24:02.276Z,2.50
2023-05-06T16:26:29.358Z,2.83
2023-05-06T16:28:56.424Z,2.78
2023-05-06T16:31:23.530Z,4.10
2023-05-06T16:33:50.873Z,2.33
2023-05-06T16:36:17.952Z,2.45
2023-05-06T16:38:45.062Z,2.40
2023-05-06T16:41:12.146Z,2.08
2023-05-06T16:43:39.171Z,3.40
2023-05-06T16:46:06.214Z,2.10
2023-05-06T16:48:33.321Z,4.13
2023-05-06T16:51:00.505Z,67.00
2023-05-06T16:53:27.674Z,57.10
2023-05-06T16:55:54.874Z,39.13
2023-05-06T17:00:50.998Z,15.32
2023-05-06T17:03:18.137Z,27.25
2023-05-06T17:05:45.288Z,58.15
2023-05-06T17:08:12.328Z,9.52
2023-05-06T17:10:39.413Z,2.67
2023-05-06T17:13:06.573Z,57.45
2023-05-06T17:15:33.699Z,2.95
2023-05-06T17:18:00.953Z,6.80
2023-05-06T17:20:28.139Z,2.00
2023-05-06T17:22:55.235Z,5.22
2023-05-06T17:25:23.202Z,3.67
2023-05-06T17:27:50.497Z,2.90
2023-05-06T17:30:17.559Z,2.03
2023-05-06T17:32:44.729Z,2.95
2023-05-06T17:35:12.077Z,1.95
2023-05-06T17:37:39.877Z,3.60
2023-05-06T17:40:07.816Z,110.82
2023-05-06T17:42:35.190Z,19.92
2023-05-06T17:45:02.292Z,3.70
2023-05-06T17:47:30.223Z,33.95
2023-05-06T17:49:57.557Z,12.20
2023-05-06T17:52:26.430Z,121.45
2023-05-06T17:55:10.634Z,175.23
2023-05-06T17:57:38.821Z,201.02
2023-05-06T18:00:07.253Z,48.17
2023-05-06T18:02:34.634Z,30.10
2023-05-06T18:05:01.701Z,65.07
2023-05-06T18:07:29.697Z,34.28
2023-05-06T18:09:56.880Z,25.00
2023-05-06T18:12:23.980Z,20.63
2023-05-06T18:14:51.025Z,27.27
2023-05-06T18:17:18.131Z,20.50
2023-05-06T18:19:45.269Z,16.65
2023-05-06T18:22:12.397Z,16.65
2023-05-06T18:24:39.436Z,13.05
2023-05-06T18:27:06.709Z,25.95
2023-05-06T18:29:34.990Z,23.92
2023-05-06T18:32:03.073Z,28.55
2023-05-06T18:34:30.243Z,14.18
2023-05-06T18:36:57.865Z,16.80
2023-05-06T18:39:24.897Z,11.15
2023-05-06T18:41:51.953Z,29.20
2023-05-06T18:44:19.008Z,15.98
2023-05-06T18:46:46.147Z,18.27
2023-05-06T18:49:14.070Z,5.80
2023-05-06T18:51:41.111Z,7.40
2023-05-06T18:54:08.210Z,6.13
2023-05-06T18:56:36.657Z,6.25
2023-05-06T18:59:03.835Z,6.22
2023-05-06T19:01:31.034Z,6.07
2023-05-06T19:03:58.175Z,5.82
2023-05-06T19:06:25.377Z,9.07
2023-05-06T19:08:53.507Z,8.60
2023-05-06T19:11:21.135Z,8.05
2023-05-06T19:13:48.233Z,6.07
2023-05-06T19:16:15.442Z,17.50
2023-05-06T19:18:42.559Z,13.25
2023-05-06T19:21:10.708Z,13.27
2023-05-06T19:23:37.802Z,12.23
2023-05-06T19:26:06.748Z,8.32
2023-05-06T19:28:34.221Z,6.20
2023-05-06T19:31:01.795Z,10.13
2023-05-06T19:33:28.929Z,10.13
2023-05-06T19:35:55.991Z,12.40
2023-05-06T19:38:23.047Z,8.15
2023-05-06T19:40:50.051Z,6.35
2023-05-06T19:43:17.094Z,10.30
2023-05-06T19:45:44.151Z,9.15
2023-05-06T19:48:12.742Z,8.65
2023-05-06T19:50:39.834Z,8.90
2023-05-06T19:53:06.871Z,6.70
2023-05-06T19:55:33.910Z,7.47
2023-05-06T19:58:02.103Z,11.95
2023-05-06T20:00:30.217Z,7.22
2023-05-06T20:02:58.190Z,6.38
2023-05-06T20:05:25.778Z,7.00
2023-05-06T20:07:52.834Z,6.47
2023-05-06T20:10:20.937Z,9.65
2023-05-06T20:12:48.133Z,14.52
2023-05-06T20:15:15.670Z,8.00
2023-05-06T20:17:42.892Z,8.98
2023-05-06T20:20:11.350Z,8.98
2023-05-06T20:22:41.308Z,9.73
2023-05-06T20:25:09.641Z,9.35
2023-05-06T20:27:36.897Z,10.20
2023-05-06T20:30:04.174Z,10.52
2023-05-06T20:32:31.876Z,12.48
2023-05-06T20:34:58.990Z,10.23
2023-05-06T20:37:26.017Z,9.70
2023-05-06T20:39:53.129Z,7.22
2023-05-06T20:42:20.182Z,9.90
2023-05-06T20:44:47.250Z,9.90
2023-05-06T20:47:14.315Z,10.88
2023-05-06T20:49:41.345Z,10.20
2023-05-06T20:52:11.106Z,8.38
2023-05-06T20:54:38.146Z,9.48
2023-05-06T20:57:05.234Z,9.48
2023-05-06T20:59:32.293Z,10.50
2023-05-06T21:01:59.385Z,9.43
2023-05-06T21:04:26.607Z,11.15
2023-05-06T21:06:53.621Z,9.18
2023-05-06T21:09:20.626Z,9.50
2023-05-06T21:11:47.660Z,9.82
2023-05-06T21:14:14.667Z,9.63
2023-05-06T21:16:41.810Z,11.98
2023-05-06T21:19:08.856Z,11.82
2023-05-06T21:21:35.897Z,10.55
2023-05-06T21:24:02.955Z,11.77
2023-05-06T21:26:31.068Z,9.10
2023-05-06T21:28:58.139Z,12.00
2023-05-06T21:31:26.436Z,10.30
2023-05-06T21:33:57.798Z,10.85
2023-05-06T21:36:24.985Z,11.27
2023-05-06T21:39:03.717Z,8.82
2023-05-06T21:41:30.977Z,10.93
2023-05-06T21:43:58.079Z,11.20
2023-05-06T21:46:25.468Z,12.18
2023-05-06T21:48:52.526Z,11.48
2023-05-06T21:51:19.565Z,10.93
2023-05-06T21:53:50.723Z,9.82
2023-05-06T21:56:18.340Z,14.63
2023-05-06T21:58:45.451Z,12.63
2023-05-06T22:01:14.317Z,13.95
2023-05-06T22:03:41.533Z,13.32
2023-05-06T22:06:08.724Z,13.90
2023-05-06T22:08:35.805Z,11.70
2023-05-06T22:11:02.898Z,11.68
2023-05-06T22:13:29.974Z,12.38
2023-05-06T22:15:57.063Z,10.75
2023-05-06T22:18:23.719Z,14.63
2023-05-06T22:20:52.278Z,15.00
2023-05-06T22:23:21.751Z,11.82
2023-05-06T22:25:48.401Z,12.48
2023-05-06T22:28:15.401Z,12.23
2023-05-06T22:30:42.475Z,15.45
2023-05-06T22:33:09.182Z,13.65
2023-05-06T22:35:35.923Z,12.73
2023-05-06T22:38:02.565Z,14.82
2023-05-06T22:40:29.303Z,16.20
2023-05-06T22:42:56.129Z,13.95
2023-05-06T22:45:22.723Z,14.50
2023-05-06T22:47:49.827Z,14.32
2023-05-06T22:50:16.905Z,15.10
2023-05-06T22:52:43.920Z,13.07
2023-05-06T22:55:11.248Z,13.77
2023-05-06T22:57:38.507Z,12.85
2023-05-06T23:00:07.989Z,12.73
2023-05-06T23:02:35.277Z,13.68
2023-05-06T23:05:02.416Z,15.45
2023-05-06T23:07:29.404Z,14.05
2023-05-06T23:09:56.491Z,16.23
2023-05-06T23:12:23.596Z,13.88
2023-05-06T23:14:51.008Z,13.32
2023-05-06T23:17:18.046Z,16.80
2023-05-06T23:19:46.025Z,13.95
2023-05-06T23:22:13.096Z,14.18
2023-05-06T23:24:40.143Z,15.65
2023-05-06T23:27:07.255Z,16.40
2023-05-06T23:29:34.354Z,16.65
2023-05-06T23:32:01.589Z,15.15
2023-05-06T23:34:28.627Z,17.70
2023-05-06T23:36:56.494Z,19.02
2023-05-06T23:39:23.193Z,20.63
2023-05-06T23:41:49.858Z,16.98
2023-05-06T23:44:16.699Z,13.45
2023-05-06T23:46:43.330Z,16.48
2023-05-06T23:49:10.034Z,16.15
2023-05-06T23:51:37.172Z,16.40
2023-05-06T23:54:03.986Z,15.23
2023-05-06T23:56:30.760Z,17.50
2023-05-06T23:58:57.365Z,15.43
